Carneys Point, New Jersey
Current Conditions -  °F | °C
As of 4:51 AM on Monday 22 Dec 2014 (Local Time) from KILG Reporting Station
Clear Clear  
Wind Chill: 25°   Ceiling: Unl
Heat Index: 25°   Visibility: 7mi
Dew Point: 21°   Wind: 3mph
Humidity: 85%   Direction: 360°N
Pressure: 30.31"   Gusts: NA
Location:  39.6981°N, 75.4502°W
Report Text: KILG 220951Z AUTO 36003KT 7SM CLR M04/M06 A3031 RMK AO2 SLP265 T10391061
Loading
Personal Weather Stations






























Interactive Weather Map New forecast layout! Learn more

10-Day Weather Forecast

Advertisements
Track Severe Weather on mobile